createdAt,value
2022-07-28T00:03:32.710Z,59.37
2022-07-28T00:06:40.986Z,59.61
2022-07-28T00:09:47.328Z,59.44
2022-07-28T00:12:53.153Z,59.20
2022-07-28T00:15:59.607Z,59.43
2022-07-28T00:19:06.900Z,59.40
2022-07-28T00:22:16.002Z,59.24
2022-07-28T00:25:21.400Z,59.21
2022-07-28T00:28:27.696Z,59.32
2022-07-28T00:31:33.442Z,59.07
2022-07-28T00:34:40.764Z,59.15
2022-07-28T00:37:50.718Z,58.93
2022-07-28T00:41:16.920Z,59.05
2022-07-28T00:44:22.522Z,59.37
2022-07-28T00:47:33.616Z,59.41
2022-07-28T00:50:42.819Z,59.32
2022-07-28T00:53:52.129Z,59.70
2022-07-28T00:56:57.503Z,59.83
2022-07-28T01:00:04.164Z,60.23
2022-07-28T01:03:10.213Z,60.10
2022-07-28T01:06:29.429Z,60.28
2022-07-28T01:09:53.888Z,60.40
2022-07-28T01:13:07.347Z,61.05
2022-07-28T01:16:13.597Z,60.96
2022-07-28T01:19:36.838Z,61.39
2022-07-28T01:22:48.877Z,61.17
2022-07-28T01:26:14.694Z,61.12
2022-07-28T01:29:32.017Z,61.61
2022-07-28T01:32:46.277Z,61.44
2022-07-28T01:35:57.985Z,61.23
2022-07-28T01:39:06.396Z,61.12
2022-07-28T01:42:16.348Z,61.13
2022-07-28T01:45:23.989Z,60.94
2022-07-28T01:48:34.491Z,61.09
2022-07-28T01:51:41.506Z,60.96
2022-07-28T01:54:49.818Z,60.66
2022-07-28T01:57:58.726Z,60.69
2022-07-28T02:01:07.036Z,60.45
2022-07-28T02:04:18.711Z,60.41
2022-07-28T02:07:25.863Z,60.68
2022-07-28T02:10:33.149Z,60.45
2022-07-28T02:13:39.418Z,60.60
2022-07-28T02:16:50.251Z,60.51
2022-07-28T02:20:00.407Z,60.39
2022-07-28T02:23:08.717Z,60.48
2022-07-28T02:26:18.071Z,60.32
2022-07-28T02:29:49.639Z,60.44
2022-07-28T02:32:56.827Z,60.19
2022-07-28T02:36:14.164Z,60.33
2022-07-28T02:39:27.137Z,60.56
2022-07-28T02:42:36.539Z,60.43
2022-07-28T02:45:44.989Z,60.61
2022-07-28T02:48:55.514Z,60.77
2022-07-28T02:52:07.902Z,60.96
2022-07-28T02:55:17.849Z,61.13
2022-07-28T02:58:26.959Z,61.37
2022-07-28T03:01:35.089Z,61.76
2022-07-28T03:05:03.178Z,61.80
2022-07-28T03:08:19.238Z,62.11
2022-07-28T03:11:24.963Z,62.33
2022-07-28T03:14:31.212Z,62.44
2022-07-28T03:17:36.646Z,62.05
2022-07-28T03:20:43.395Z,61.94
2022-07-28T03:23:54.736Z,62.06
2022-07-28T03:27:06.119Z,61.72
2022-07-28T03:30:15.543Z,61.45
2022-07-28T03:33:22.081Z,61.68
2022-07-28T03:36:35.951Z,61.45
2022-07-28T03:39:50.035Z,61.16
2022-07-28T03:42:56.606Z,61.03
2022-07-28T03:46:03.060Z,61.46
2022-07-28T03:49:11.604Z,61.03
2022-07-28T03:52:18.066Z,60.97
2022-07-28T03:55:26.802Z,60.89
2022-07-28T03:58:33.101Z,60.89
2022-07-28T04:01:38.724Z,60.95
2022-07-28T04:04:45.233Z,60.82
2022-07-28T04:07:52.271Z,60.86
2022-07-28T04:11:01.320Z,60.68
2022-07-28T04:14:07.345Z,60.89
2022-07-28T04:17:13.665Z,60.67
2022-07-28T04:20:20.557Z,60.51
2022-07-28T04:23:27.046Z,60.86
2022-07-28T04:26:35.521Z,61.02
2022-07-28T04:29:41.907Z,60.98
2022-07-28T04:32:48.237Z,61.00
2022-07-28T04:35:54.854Z,61.28
2022-07-28T04:39:00.667Z,61.33
2022-07-28T04:42:11.782Z,60.88
2022-07-28T04:45:17.206Z,60.78
2022-07-28T04:48:23.971Z,60.67
2022-07-28T04:51:31.641Z,60.57
2022-07-28T04:54:38.264Z,60.72
2022-07-28T04:57:46.708Z,60.50
2022-07-28T05:00:53.089Z,60.45
2022-07-28T05:03:58.586Z,60.40
2022-07-28T05:07:07.856Z,60.70
2022-07-28T05:10:18.431Z,60.08
2022-07-28T05:13:33.359Z,60.39
2022-07-28T05:16:39.776Z,60.70
2022-07-28T05:19:47.018Z,60.94
2022-07-28T05:22:53.963Z,61.04
2022-07-28T05:26:00.241Z,61.10
2022-07-28T05:29:09.994Z,61.22
2022-07-28T05:32:17.748Z,61.27
2022-07-28T05:35:24.127Z,60.97
2022-07-28T05:38:31.107Z,60.86
2022-07-28T05:41:36.717Z,60.94
2022-07-28T05:44:45.791Z,60.15
2022-07-28T05:47:53.006Z,59.50
2022-07-28T05:50:59.382Z,59.31
2022-07-28T05:54:06.298Z,59.18
2022-07-28T05:57:15.221Z,59.06
2022-07-28T06:00:25.991Z,58.67
2022-07-28T06:03:41.468Z,58.25
2022-07-28T06:06:47.343Z,58.14
2022-07-28T06:09:53.569Z,57.88
2022-07-28T06:12:59.596Z,57.00
2022-07-28T06:16:13.279Z,56.72
2022-07-28T06:19:18.921Z,55.95
2022-07-28T06:22:25.165Z,54.80
2022-07-28T06:25:32.292Z,54.40
2022-07-28T06:28:38.909Z,54.63
2022-07-28T06:31:47.079Z,54.24
2022-07-28T06:34:53.290Z,54.46
2022-07-28T06:37:58.641Z,54.05
2022-07-28T06:41:06.718Z,54.07
2022-07-28T06:44:12.786Z,52.72
2022-07-28T06:47:23.400Z,52.73
2022-07-28T06:50:29.301Z,52.16
2022-07-28T06:53:35.709Z,52.36
2022-07-28T06:56:41.073Z,51.51
2022-07-28T06:59:48.394Z,50.82
2022-07-28T07:02:56.877Z,50.44
2022-07-28T07:06:03.518Z,49.98
2022-07-28T07:09:10.278Z,50.00
2022-07-28T07:12:16.494Z,50.06
2022-07-28T07:15:22.009Z,49.88
2022-07-28T07:18:33.245Z,50.83
2022-07-28T07:21:38.701Z,49.22
2022-07-28T07:24:44.878Z,48.52
2022-07-28T07:27:50.426Z,48.97
2022-07-28T07:30:56.776Z,48.59
2022-07-28T07:34:06.669Z,49.04
2022-07-28T07:37:15.324Z,49.23
2022-07-28T07:40:20.678Z,49.01
2022-07-28T07:43:26.964Z,48.59
2022-07-28T07:46:32.366Z,48.53
2022-07-28T07:49:45.154Z,48.02
2022-07-28T07:52:52.850Z,47.81
2022-07-28T07:55:59.182Z,47.74
2022-07-28T07:59:06.625Z,47.70
2022-07-28T08:02:13.036Z,46.48
2022-07-28T08:05:21.577Z,47.17
2022-07-28T08:08:46.438Z,46.40
2022-07-28T08:11:53.880Z,47.60
2022-07-28T08:15:00.322Z,47.28
2022-07-28T08:18:07.517Z,47.29
2022-07-28T08:21:16.723Z,46.44
2022-07-28T08:24:33.052Z,46.70
2022-07-28T08:27:40.370Z,46.50
2022-07-28T08:30:45.976Z,46.63
2022-07-28T08:33:53.814Z,46.63
2022-07-28T08:37:03.192Z,46.47
2022-07-28T08:40:15.029Z,46.76
2022-07-28T08:43:33.698Z,45.99
2022-07-28T08:46:41.830Z,46.22
2022-07-28T08:49:47.319Z,45.83
2022-07-28T08:52:56.904Z,46.13
2022-07-28T08:56:07.583Z,45.67
2022-07-28T08:59:13.849Z,45.67
2022-07-28T09:02:20.191Z,45.73
2022-07-28T09:05:28.032Z,45.97
2022-07-28T09:08:36.457Z,45.46
2022-07-28T09:11:43.205Z,44.77
2022-07-28T09:14:49.254Z,46.00
2022-07-28T09:17:55.837Z,44.80
2022-07-28T09:21:01.273Z,45.01
2022-07-28T09:24:11.716Z,44.12
2022-07-28T09:27:18.773Z,45.03
2022-07-28T09:30:33.338Z,45.98
2022-07-28T09:33:43.106Z,45.17
2022-07-28T09:36:50.332Z,45.20
2022-07-28T09:40:04.061Z,45.18
2022-07-28T09:43:12.050Z,44.69
2022-07-28T09:46:19.185Z,44.96
2022-07-28T09:49:43.426Z,44.16
2022-07-28T09:52:50.040Z,44.70
2022-07-28T09:56:04.712Z,44.29
2022-07-28T09:59:12.863Z,44.69
2022-07-28T10:02:27.266Z,44.90
2022-07-28T10:05:43.741Z,44.93
2022-07-28T10:08:52.721Z,44.01
2022-07-28T10:12:21.182Z,43.76
2022-07-28T10:15:50.693Z,44.18
2022-07-28T10:18:57.465Z,44.53
2022-07-28T10:22:06.406Z,43.88
2022-07-28T10:25:13.704Z,42.86
2022-07-28T10:28:24.802Z,43.95
2022-07-28T10:31:38.804Z,43.28
2022-07-28T10:34:59.251Z,44.10
2022-07-28T10:38:15.043Z,44.60
2022-07-28T10:41:25.201Z,44.11
2022-07-28T10:44:38.277Z,43.38
2022-07-28T10:47:44.795Z,43.01
2022-07-28T10:50:50.456Z,43.24
2022-07-28T10:54:01.047Z,42.93
2022-07-28T10:57:09.177Z,43.20
2022-07-28T11:00:26.386Z,43.23
2022-07-28T11:03:44.651Z,43.14
2022-07-28T11:06:51.398Z,43.55
2022-07-28T11:09:57.075Z,42.83
2022-07-28T11:13:06.106Z,43.05
2022-07-28T11:16:26.707Z,43.21
2022-07-28T11:23:47.612Z,42.65
2022-07-28T11:26:54.503Z,43.03
2022-07-28T11:30:00.182Z,42.99
2022-07-28T11:33:11.042Z,42.55
2022-07-28T11:36:16.499Z,43.47
2022-07-28T11:39:25.124Z,41.90
2022-07-28T11:42:33.789Z,41.79
2022-07-28T11:45:45.735Z,40.96
2022-07-28T11:49:24.065Z,40.60
2022-07-28T11:52:31.282Z,40.61
2022-07-28T11:55:49.181Z,40.41
2022-07-28T11:59:04.296Z,40.36
2022-07-28T12:02:10.333Z,39.92
2022-07-28T12:05:20.697Z,40.18
2022-07-28T12:08:26.086Z,39.89
2022-07-28T12:11:35.625Z,39.85
2022-07-28T12:14:44.947Z,40.44
2022-07-28T12:17:52.486Z,41.03
2022-07-28T12:21:05.211Z,40.77
2022-07-28T12:24:15.574Z,40.91
2022-07-28T12:27:31.829Z,40.26
2022-07-28T12:30:38.409Z,40.56
2022-07-28T12:33:45.111Z,40.56
2022-07-28T12:36:57.164Z,39.82
2022-07-28T12:40:03.552Z,39.79
2022-07-28T12:43:09.899Z,39.34
2022-07-28T12:46:15.358Z,38.98
2022-07-28T12:49:25.635Z,39.41
2022-07-28T12:52:33.925Z,39.65
2022-07-28T12:55:43.201Z,38.88
2022-07-28T12:58:48.885Z,39.79
2022-07-28T13:01:57.439Z,40.20
2022-07-28T13:05:03.303Z,40.07
2022-07-28T13:08:12.565Z,41.11
2022-07-28T13:11:43.195Z,40.56
2022-07-28T13:14:48.675Z,40.21
2022-07-28T13:17:57.268Z,40.95
2022-07-28T13:21:03.579Z,40.59
2022-07-28T13:24:14.508Z,40.69
2022-07-28T13:27:21.068Z,40.32
2022-07-28T13:30:27.262Z,40.49
2022-07-28T13:33:39.511Z,40.16
2022-07-28T13:36:45.083Z,40.04
2022-07-28T13:39:54.916Z,39.83
2022-07-28T13:43:00.348Z,40.47
2022-07-28T13:46:07.855Z,39.86
2022-07-28T13:49:14.102Z,40.18
2022-07-28T13:52:32.503Z,39.49
2022-07-28T13:55:42.625Z,38.67
2022-07-28T13:58:48.847Z,38.91
2022-07-28T14:01:55.594Z,39.01
2022-07-28T14:05:03.001Z,38.97
2022-07-28T14:08:08.832Z,39.19
2022-07-28T14:11:19.523Z,38.36
2022-07-28T14:14:28.538Z,38.42
2022-07-28T14:17:43.554Z,38.53
2022-07-28T14:20:50.332Z,38.00
2022-07-28T14:23:57.178Z,38.96
2022-07-28T14:27:06.542Z,38.87
2022-07-28T14:30:14.415Z,38.90
2022-07-28T14:33:20.756Z,38.94
2022-07-28T14:36:26.967Z,39.08
2022-07-28T14:39:32.597Z,38.60
2022-07-28T14:42:42.076Z,38.47
2022-07-28T14:46:01.624Z,38.97
2022-07-28T14:49:13.831Z,39.13
2022-07-28T14:52:19.210Z,39.51
2022-07-28T14:55:26.676Z,38.84
2022-07-28T14:58:34.935Z,39.58
2022-07-28T15:01:41.259Z,39.77
2022-07-28T15:04:46.837Z,39.16
2022-07-28T15:07:53.613Z,39.25
2022-07-28T15:10:59.238Z,39.00
2022-07-28T15:14:08.642Z,38.82
2022-07-28T15:17:14.293Z,37.98
2022-07-28T15:20:20.536Z,38.56
2022-07-28T15:23:26.412Z,38.22
2022-07-28T15:26:32.622Z,37.05
2022-07-28T15:29:43.419Z,36.43
2022-07-28T15:32:56.299Z,35.74
2022-07-28T15:36:03.480Z,35.36
2022-07-28T15:39:14.192Z,34.46
2022-07-28T15:42:19.762Z,33.59
2022-07-28T15:45:29.367Z,33.04
2022-07-28T15:48:35.076Z,32.56
2022-07-28T15:51:42.223Z,32.52
2022-07-28T15:54:47.933Z,32.14
2022-07-28T15:57:55.783Z,32.37
2022-07-28T16:01:03.959Z,31.84
2022-07-28T16:04:10.832Z,31.31
2022-07-28T16:07:23.709Z,30.31
2022-07-28T16:10:30.147Z,31.27
2022-07-28T16:13:37.624Z,31.37
2022-07-28T16:16:46.732Z,30.80
2022-07-28T16:19:52.319Z,31.63
2022-07-28T16:22:59.094Z,31.61
2022-07-28T16:26:08.235Z,32.00
2022-07-28T16:29:14.559Z,33.20
2022-07-28T16:32:22.762Z,32.66
2022-07-28T16:35:32.891Z,32.45
2022-07-28T16:38:38.263Z,32.08
2022-07-28T16:41:47.763Z,31.24
2022-07-28T16:44:53.835Z,32.05
2022-07-28T16:48:04.132Z,30.71
2022-07-28T16:51:09.708Z,31.46
2022-07-28T16:54:16.171Z,31.59
2022-07-28T16:57:21.836Z,30.15
2022-07-28T17:00:29.847Z,31.62
2022-07-28T17:03:38.081Z,32.20
2022-07-28T17:06:45.423Z,32.63
2022-07-28T17:09:54.375Z,33.83
2022-07-28T17:13:00.543Z,34.95
2022-07-28T17:16:07.873Z,34.86
2022-07-28T17:19:18.736Z,35.26
2022-07-28T17:22:25.087Z,36.16
2022-07-28T17:29:00.878Z,36.67
2022-07-28T17:32:08.378Z,36.92
2022-07-28T17:35:31.299Z,37.28
2022-07-28T17:38:38.173Z,37.81
2022-07-28T17:41:43.793Z,37.90
2022-07-28T17:44:51.246Z,38.39
2022-07-28T17:47:56.611Z,38.89
2022-07-28T17:51:06.163Z,38.99
2022-07-28T17:54:13.910Z,38.95
2022-07-28T17:57:21.783Z,39.17
2022-07-28T18:00:30.127Z,40.01
2022-07-28T18:03:59.386Z,40.29
2022-07-28T18:07:06.351Z,40.47
2022-07-28T18:10:12.893Z,40.26
2022-07-28T18:13:19.907Z,41.04
2022-07-28T18:16:26.240Z,40.80
2022-07-28T18:19:32.489Z,40.92
2022-07-28T18:22:41.759Z,41.47
2022-07-28T18:25:47.100Z,41.34
2022-07-28T18:28:53.821Z,41.92
2022-07-28T18:31:59.148Z,42.01
2022-07-28T18:35:06.509Z,42.24
2022-07-28T18:38:14.725Z,42.45
2022-07-28T18:41:20.984Z,42.78
2022-07-28T18:44:26.606Z,42.90
2022-07-28T18:47:32.903Z,43.22
2022-07-28T18:50:40.915Z,43.46
2022-07-28T18:53:50.223Z,43.62
2022-07-28T18:56:55.590Z,43.61
2022-07-28T19:00:03.799Z,44.00
2022-07-28T19:03:09.485Z,43.97
2022-07-28T19:06:15.756Z,44.39
2022-07-28T19:09:24.169Z,44.52
2022-07-28T19:12:31.616Z,44.73
2022-07-28T19:15:37.059Z,44.74
2022-07-28T19:18:43.685Z,45.00
2022-07-28T19:21:49.142Z,45.20
2022-07-28T19:24:58.486Z,45.48
2022-07-28T19:28:03.884Z,45.36
2022-07-28T19:31:10.938Z,45.62
2022-07-28T19:34:17.579Z,45.68
2022-07-28T19:37:23.963Z,45.59
2022-07-28T19:40:32.435Z,45.77
2022-07-28T19:43:38.699Z,46.20
2022-07-28T19:46:45.585Z,46.29
2022-07-28T19:49:52.183Z,46.46
2022-07-28T19:52:57.778Z,46.75
2022-07-28T19:56:09.014Z,46.94
2022-07-28T19:59:15.148Z,46.73
2022-07-28T20:02:21.406Z,46.67
2022-07-28T20:05:26.992Z,46.80
2022-07-28T20:08:33.217Z,46.69
2022-07-28T20:11:41.404Z,47.09
2022-07-28T20:14:47.576Z,46.78
2022-07-28T20:17:53.176Z,46.88
2022-07-28T20:20:59.558Z,46.87
2022-07-28T20:24:27.770Z,47.10
2022-07-28T20:27:54.194Z,47.29
2022-07-28T20:30:59.579Z,47.60
2022-07-28T20:34:07.223Z,47.66
2022-07-28T20:37:28.470Z,47.53
2022-07-28T20:40:39.292Z,47.72
2022-07-28T20:44:11.220Z,47.66
2022-07-28T20:47:16.692Z,47.68
2022-07-28T20:50:25.298Z,47.97
2022-07-28T20:53:33.247Z,48.02
2022-07-28T20:56:38.619Z,48.19
2022-07-28T20:59:49.153Z,48.39
2022-07-28T21:02:54.788Z,48.67
2022-07-28T21:06:01.430Z,48.73
2022-07-28T21:09:08.340Z,48.95
2022-07-28T21:12:16.534Z,49.04
2022-07-28T21:15:24.952Z,49.22
2022-07-28T21:18:31.284Z,49.26
2022-07-28T21:21:39.270Z,49.36
2022-07-28T21:24:45.446Z,49.63
2022-07-28T21:28:06.782Z,49.76
2022-07-28T21:31:17.398Z,50.11
2022-07-28T21:34:22.777Z,50.14
2022-07-28T21:37:29.226Z,50.05
2022-07-28T21:40:38.707Z,50.42
2022-07-28T21:43:45.487Z,50.38
2022-07-28T21:46:53.877Z,50.46
2022-07-28T21:50:00.122Z,50.52
2022-07-28T21:53:06.878Z,50.64
2022-07-28T21:56:13.562Z,50.82
2022-07-28T21:59:18.918Z,50.89
2022-07-28T22:02:27.942Z,50.99
2022-07-28T22:05:34.462Z,51.02
2022-07-28T22:08:40.986Z,51.19
2022-07-28T22:11:46.504Z,51.17
2022-07-28T22:14:53.217Z,51.28
2022-07-28T22:18:01.413Z,51.69
2022-07-28T22:21:07.984Z,51.85
2022-07-28T22:24:13.616Z,52.17
2022-07-28T22:27:19.991Z,52.17
2022-07-28T22:30:30.344Z,52.39
2022-07-28T22:33:39.415Z,52.43
2022-07-28T22:36:45.218Z,52.51
2022-07-28T22:39:51.774Z,52.82
2022-07-28T22:42:57.454Z,52.97
2022-07-28T22:46:04.289Z,53.15
2022-07-28T22:49:12.590Z,53.01
2022-07-28T22:52:18.776Z,53.41
2022-07-28T22:58:47.490Z,53.59
2022-07-28T23:01:52.832Z,53.93
2022-07-28T23:05:03.594Z,53.97
2022-07-28T23:08:09.458Z,54.38
2022-07-28T23:11:17.167Z,54.42
2022-07-28T23:14:22.638Z,54.79
2022-07-28T23:17:28.880Z,54.81
2022-07-28T23:20:37.532Z,55.06
2022-07-28T23:23:44.030Z,55.33
2022-07-28T23:26:49.524Z,55.39
2022-07-28T23:29:55.817Z,55.88
2022-07-28T23:33:03.016Z,56.00
2022-07-28T23:36:16.846Z,56.26
2022-07-28T23:39:33.400Z,56.46
2022-07-28T23:42:39.846Z,56.72
2022-07-28T23:45:45.340Z,56.95
2022-07-28T23:48:51.849Z,57.02
2022-07-28T23:52:00.341Z,57.14
2022-07-28T23:55:08.369Z,57.04
2022-07-28T23:58:13.920Z,57.12
